createdAt,value
2023-03-16T00:02:07.177Z,22.20
2023-03-16T00:04:37.789Z,34.50
2023-03-16T00:07:07.006Z,28.43
2023-03-16T00:09:36.470Z,26.67
2023-03-16T00:12:05.151Z,24.33
2023-03-16T00:14:35.667Z,25.83
2023-03-16T00:17:21.360Z,28.23
2023-03-16T00:19:55.669Z,28.40
2023-03-16T00:22:25.387Z,27.13
2023-03-16T00:24:54.368Z,32.07
2023-03-16T00:27:23.810Z,30.37
2023-03-16T00:29:55.920Z,30.03
2023-03-16T00:32:26.902Z,22.27
2023-03-16T00:34:57.067Z,20.47
2023-03-16T00:37:26.896Z,23.97
2023-03-16T00:39:56.786Z,27.07
2023-03-16T00:42:28.057Z,23.40
2023-03-16T00:44:58.075Z,27.70
2023-03-16T00:47:28.492Z,20.80
2023-03-16T00:49:58.641Z,27.73
2023-03-16T00:52:27.961Z,25.37
2023-03-16T00:54:57.434Z,19.70
2023-03-16T00:57:27.838Z,29.10
2023-03-16T00:59:56.008Z,27.40
2023-03-16T01:02:24.796Z,21.00
2023-03-16T01:04:54.662Z,25.80
2023-03-16T01:07:24.572Z,17.47
2023-03-16T01:09:52.767Z,19.87
2023-03-16T01:12:21.620Z,15.90
2023-03-16T01:14:50.389Z,27.17
2023-03-16T01:17:19.333Z,26.87
2023-03-16T01:19:47.928Z,24.73
2023-03-16T01:22:17.047Z,24.87
2023-03-16T01:24:47.181Z,21.23
2023-03-16T01:27:16.029Z,23.63
2023-03-16T01:29:44.707Z,21.87
2023-03-16T01:32:13.491Z,24.10
2023-03-16T01:34:41.631Z,16.13
2023-03-16T01:37:09.811Z,20.17
2023-03-16T01:39:37.964Z,19.43
2023-03-16T01:42:07.873Z,23.93
2023-03-16T01:44:52.827Z,22.47
2023-03-16T01:47:21.060Z,20.50
2023-03-16T01:49:49.555Z,23.33
2023-03-16T01:52:22.143Z,20.13
2023-03-16T01:54:52.587Z,27.27
2023-03-16T01:57:24.646Z,24.83
2023-03-16T01:59:58.338Z,25.00
2023-03-16T02:02:31.195Z,17.30
2023-03-16T02:05:03.680Z,22.03
2023-03-16T02:07:35.685Z,20.50
2023-03-16T02:10:05.581Z,24.67
2023-03-16T02:12:35.230Z,25.93
2023-03-16T02:15:04.302Z,25.83
2023-03-16T02:17:35.166Z,23.20
2023-03-16T02:20:14.069Z,27.97
2023-03-16T02:22:46.049Z,22.60
2023-03-16T02:25:18.079Z,32.63
2023-03-16T02:27:57.800Z,25.10
2023-03-16T02:30:27.696Z,19.30
2023-03-16T02:32:56.461Z,27.87
2023-03-16T02:35:24.928Z,28.63
2023-03-16T02:37:53.458Z,22.90
2023-03-16T02:40:24.729Z,29.17
2023-03-16T02:43:02.746Z,35.27
2023-03-16T02:45:37.544Z,27.40
2023-03-16T02:48:14.609Z,31.90
2023-03-16T02:50:48.153Z,30.90
2023-03-16T02:53:16.974Z,35.87
2023-03-16T02:55:45.910Z,29.70
2023-03-16T02:58:14.233Z,31.23
2023-03-16T03:00:45.329Z,42.13
2023-03-16T03:03:14.240Z,36.33
2023-03-16T03:05:42.548Z,30.80
2023-03-16T03:08:10.780Z,32.63
2023-03-16T03:10:39.372Z,33.90
2023-03-16T03:13:08.444Z,35.90
2023-03-16T03:15:36.687Z,33.67
2023-03-16T03:18:06.333Z,41.00
2023-03-16T03:20:34.818Z,28.63
2023-03-16T03:23:04.013Z,37.50
2023-03-16T03:25:34.878Z,32.50
2023-03-16T03:28:05.514Z,33.13
2023-03-16T03:30:34.005Z,32.67
2023-03-16T03:33:02.892Z,29.40
2023-03-16T03:35:32.891Z,33.67
2023-03-16T03:38:01.122Z,38.30
2023-03-16T03:40:29.915Z,34.63
2023-03-16T03:42:58.443Z,30.40
2023-03-16T03:45:26.851Z,32.37
2023-03-16T03:47:56.247Z,31.77
2023-03-16T03:50:24.565Z,30.77
2023-03-16T03:52:54.220Z,36.13
2023-03-16T03:55:22.461Z,29.33
2023-03-16T03:57:51.047Z,37.27
2023-03-16T04:00:20.983Z,40.17
2023-03-16T04:02:49.417Z,37.57
2023-03-16T04:05:17.913Z,39.83
2023-03-16T04:07:46.099Z,41.53
2023-03-16T04:10:15.813Z,38.40
2023-03-16T04:12:43.985Z,37.90
2023-03-16T04:15:13.610Z,38.67
2023-03-16T04:17:42.274Z,43.90
2023-03-16T04:20:16.118Z,45.70
2023-03-16T04:22:44.302Z,38.63
2023-03-16T04:25:13.566Z,36.53
2023-03-16T04:27:43.367Z,40.23
2023-03-16T04:30:14.088Z,44.83
2023-03-16T04:32:42.727Z,42.50
2023-03-16T04:35:11.685Z,40.10
2023-03-16T04:37:40.040Z,33.87
2023-03-16T04:40:16.509Z,38.67
2023-03-16T04:42:47.527Z,42.23
2023-03-16T04:45:18.605Z,39.50
2023-03-16T04:47:46.888Z,57.30
2023-03-16T04:50:15.242Z,79.17
2023-03-16T04:52:43.359Z,75.17
2023-03-16T04:55:12.046Z,64.07
2023-03-16T04:57:40.210Z,56.00
2023-03-16T05:00:15.068Z,56.07
2023-03-16T05:02:43.224Z,44.70
2023-03-16T05:05:11.698Z,48.87
2023-03-16T05:07:41.553Z,47.00
2023-03-16T05:10:10.982Z,44.50
2023-03-16T05:12:39.148Z,45.80
2023-03-16T05:15:10.259Z,44.00
2023-03-16T05:17:38.862Z,37.00
2023-03-16T05:20:08.352Z,45.07
2023-03-16T05:22:36.592Z,43.07
2023-03-16T05:25:05.623Z,43.90
2023-03-16T05:27:34.264Z,42.47
2023-03-16T05:30:02.440Z,42.10
2023-03-16T05:32:32.055Z,37.37
2023-03-16T05:35:00.270Z,37.23
2023-03-16T05:37:28.401Z,43.90
2023-03-16T05:39:57.766Z,41.53
2023-03-16T05:42:27.027Z,40.87
2023-03-16T05:44:55.532Z,51.73
2023-03-16T05:47:23.700Z,41.73
2023-03-16T05:49:53.416Z,40.23
2023-03-16T05:52:21.568Z,44.37
2023-03-16T05:54:49.709Z,39.47
2023-03-16T05:57:17.862Z,36.20
2023-03-16T05:59:46.003Z,29.10
2023-03-16T06:02:14.116Z,38.10
2023-03-16T06:04:42.247Z,71.73
2023-03-16T06:07:13.188Z,46.33
2023-03-16T06:09:41.386Z,48.13
2023-03-16T06:12:12.182Z,45.83
2023-03-16T06:14:40.325Z,57.30
2023-03-16T06:17:08.512Z,45.73
2023-03-16T06:19:36.698Z,45.40
2023-03-16T06:22:05.132Z,42.67
2023-03-16T06:24:34.705Z,37.60
2023-03-16T06:27:02.968Z,35.33
2023-03-16T06:29:31.216Z,43.67
2023-03-16T06:31:59.434Z,41.53
2023-03-16T06:34:27.719Z,50.40
2023-03-16T06:36:55.908Z,43.20
2023-03-16T06:39:26.470Z,42.03
2023-03-16T06:41:55.992Z,34.33
2023-03-16T06:44:24.216Z,47.10
2023-03-16T06:46:52.380Z,39.10
2023-03-16T06:49:21.175Z,39.20
2023-03-16T06:51:49.446Z,44.30
2023-03-16T06:54:17.622Z,49.10
2023-03-16T06:56:46.573Z,35.43
2023-03-16T06:59:16.191Z,41.03
2023-03-16T07:01:45.060Z,42.03
2023-03-16T07:04:13.803Z,38.00
2023-03-16T07:06:42.399Z,36.73
2023-03-16T07:09:10.676Z,37.60
2023-03-16T07:11:39.035Z,41.63
2023-03-16T07:14:08.134Z,41.70
2023-03-16T07:16:37.753Z,41.77
2023-03-16T07:19:06.056Z,33.53
2023-03-16T07:21:39.392Z,40.83
2023-03-16T07:24:08.409Z,40.30
2023-03-16T07:26:36.575Z,48.00
2023-03-16T07:29:06.415Z,46.27
2023-03-16T07:31:35.135Z,35.70
2023-03-16T07:34:05.648Z,41.27
2023-03-16T07:36:33.804Z,42.93
2023-03-16T07:39:02.473Z,42.53
2023-03-16T07:41:32.656Z,37.70
2023-03-16T07:44:01.060Z,33.60
2023-03-16T07:46:29.311Z,42.53
2023-03-16T07:48:57.539Z,40.03
2023-03-16T07:51:27.090Z,36.80
2023-03-16T07:53:55.312Z,38.37
2023-03-16T07:56:23.546Z,34.13
2023-03-16T07:58:51.684Z,38.37
2023-03-16T08:01:19.818Z,36.40
2023-03-16T08:03:48.098Z,34.40
2023-03-16T08:06:16.390Z,37.40
2023-03-16T08:08:46.183Z,39.80
2023-03-16T08:11:23.610Z,36.80
2023-03-16T08:13:54.216Z,33.60
2023-03-16T08:16:22.692Z,33.90
2023-03-16T08:18:51.980Z,30.43
2023-03-16T08:21:21.738Z,38.70
2023-03-16T08:23:52.042Z,32.77
2023-03-16T08:26:20.813Z,25.37
2023-03-16T08:28:52.080Z,25.60
2023-03-16T08:31:23.422Z,21.60
2023-03-16T08:33:52.489Z,30.17
2023-03-16T08:36:21.137Z,25.87
2023-03-16T08:39:06.131Z,26.10
2023-03-16T08:41:36.919Z,19.50
2023-03-16T08:44:05.283Z,22.33
2023-03-16T08:46:34.501Z,24.47
2023-03-16T08:49:02.835Z,22.03
2023-03-16T08:51:31.233Z,25.70
2023-03-16T08:54:00.787Z,24.00
2023-03-16T08:56:30.486Z,21.73
2023-03-16T08:58:58.650Z,22.17
2023-03-16T09:01:27.617Z,20.73
2023-03-16T09:03:55.870Z,19.73
2023-03-16T09:06:24.412Z,18.93
2023-03-16T09:08:52.988Z,18.90
2023-03-16T09:11:23.407Z,18.77
2023-03-16T09:13:53.151Z,18.33
2023-03-16T09:16:25.657Z,18.37
2023-03-16T09:18:54.194Z,17.30
2023-03-16T09:21:23.361Z,18.27
2023-03-16T09:23:51.534Z,15.10
2023-03-16T09:26:20.799Z,11.97
2023-03-16T09:28:50.928Z,15.03
2023-03-16T09:31:21.559Z,14.80
2023-03-16T09:33:49.778Z,14.23
2023-03-16T09:36:17.965Z,14.20
2023-03-16T09:38:46.252Z,14.47
2023-03-16T09:41:25.825Z,13.27
2023-03-16T09:44:06.681Z,9.13
2023-03-16T09:46:40.606Z,11.03
2023-03-16T09:49:11.859Z,13.80
2023-03-16T09:51:46.233Z,9.70
2023-03-16T09:54:24.383Z,9.13
2023-03-16T09:56:54.512Z,4.20
2023-03-16T09:59:25.177Z,9.50
2023-03-16T10:02:10.893Z,9.03
2023-03-16T10:04:48.057Z,11.90
2023-03-16T10:07:29.682Z,10.67
2023-03-16T10:10:03.491Z,14.43
2023-03-16T10:12:37.496Z,8.70
2023-03-16T10:15:13.926Z,8.23
2023-03-16T10:17:50.085Z,12.43
2023-03-16T10:20:21.761Z,6.17
2023-03-16T10:22:52.467Z,10.27
2023-03-16T10:25:26.968Z,7.90
2023-03-16T10:27:57.346Z,9.07
2023-03-16T10:30:31.168Z,10.47
2023-03-16T10:33:03.752Z,14.60
2023-03-16T10:35:41.754Z,8.83
2023-03-16T10:38:10.528Z,9.77
2023-03-16T10:40:40.293Z,11.57
2023-03-16T10:43:14.039Z,11.87
2023-03-16T10:45:44.641Z,13.90
2023-03-16T10:48:15.976Z,9.10
2023-03-16T10:50:45.409Z,9.23
2023-03-16T10:53:20.506Z,12.13
2023-03-16T10:55:50.336Z,12.67
2023-03-16T10:58:26.223Z,15.00
2023-03-16T11:00:55.938Z,14.23
2023-03-16T11:03:28.848Z,17.17
2023-03-16T11:06:02.323Z,17.83
2023-03-16T11:08:34.896Z,22.17
2023-03-16T11:11:11.884Z,14.07
2023-03-16T11:13:45.048Z,15.10
2023-03-16T11:16:25.379Z,15.60
2023-03-16T11:18:57.988Z,12.60
2023-03-16T11:21:38.597Z,17.80
2023-03-16T11:24:16.050Z,13.37
2023-03-16T11:26:48.831Z,12.83
2023-03-16T11:29:23.729Z,22.83
2023-03-16T11:31:56.326Z,11.23
2023-03-16T11:34:30.578Z,15.93
2023-03-16T11:37:05.740Z,17.20
2023-03-16T11:39:41.738Z,16.57
2023-03-16T11:42:22.240Z,14.33
2023-03-16T11:44:59.369Z,18.33
2023-03-16T11:47:54.757Z,19.20
2023-03-16T11:50:29.626Z,16.80
2023-03-16T11:53:04.989Z,16.93
2023-03-16T11:55:40.913Z,16.33
2023-03-16T11:58:22.792Z,21.33
2023-03-16T12:01:00.233Z,16.57
2023-03-16T12:03:55.125Z,13.90
2023-03-16T12:06:35.016Z,21.00
2023-03-16T12:09:47.647Z,16.63
2023-03-16T12:12:29.742Z,16.90
2023-03-16T12:15:11.562Z,19.13
2023-03-16T12:17:42.036Z,15.07
2023-03-16T12:20:18.757Z,19.27
2023-03-16T12:22:50.804Z,13.13
2023-03-16T12:25:22.225Z,17.60
2023-03-16T12:27:54.677Z,19.03
2023-03-16T12:30:36.640Z,16.90
2023-03-16T12:33:13.928Z,15.43
2023-03-16T12:35:50.086Z,11.23
2023-03-16T12:38:33.227Z,11.80
2023-03-16T12:41:12.711Z,10.37
2023-03-16T12:43:54.213Z,15.70
2023-03-16T12:46:30.601Z,16.20
2023-03-16T12:49:02.295Z,13.03
2023-03-16T12:51:39.701Z,11.03
2023-03-16T12:54:18.957Z,12.53
2023-03-16T12:56:49.162Z,15.43
2023-03-16T12:59:21.008Z,15.07
2023-03-16T13:01:52.228Z,11.90
2023-03-16T13:04:24.157Z,13.73
2023-03-16T13:07:05.096Z,19.10
2023-03-16T13:09:36.061Z,27.07
2023-03-16T13:12:05.520Z,21.60
2023-03-16T13:14:40.721Z,14.00
2023-03-16T13:17:25.573Z,13.00
2023-03-16T13:20:04.109Z,12.33
2023-03-16T13:22:44.514Z,10.90
2023-03-16T13:25:18.115Z,10.70
2023-03-16T13:27:48.481Z,11.53
2023-03-16T13:30:20.633Z,10.93
2023-03-16T13:32:49.592Z,9.23
2023-03-16T13:35:19.762Z,10.00
2023-03-16T13:37:50.244Z,6.57
2023-03-16T13:40:21.994Z,9.73
2023-03-16T13:42:53.033Z,5.40
2023-03-16T13:45:24.393Z,13.30
2023-03-16T13:47:53.529Z,9.67
2023-03-16T13:50:22.122Z,9.87
2023-03-16T13:52:59.658Z,7.90
2023-03-16T13:55:32.926Z,7.43
2023-03-16T13:58:01.789Z,8.30
2023-03-16T14:00:34.651Z,10.70
2023-03-16T14:03:14.449Z,9.60
2023-03-16T14:05:42.827Z,13.50
2023-03-16T14:08:19.864Z,9.00
2023-03-16T14:10:48.896Z,7.80
2023-03-16T14:13:36.290Z,10.13
2023-03-16T14:16:13.197Z,15.93
2023-03-16T14:18:44.290Z,12.30
2023-03-16T14:21:17.840Z,13.30
2023-03-16T14:23:49.454Z,11.10
2023-03-16T14:26:19.478Z,14.10
2023-03-16T14:28:57.375Z,15.67
2023-03-16T14:31:34.700Z,11.13
2023-03-16T14:34:04.949Z,16.20
2023-03-16T14:36:37.632Z,15.13
2023-03-16T14:39:14.654Z,14.10
2023-03-16T14:41:43.534Z,21.47
2023-03-16T14:44:21.644Z,19.03
2023-03-16T14:46:50.696Z,16.53
2023-03-16T14:49:22.835Z,13.03
2023-03-16T14:51:53.873Z,16.90
2023-03-16T14:54:23.895Z,18.93
2023-03-16T14:56:53.411Z,17.80
2023-03-16T14:59:22.216Z,20.27
2023-03-16T15:01:51.837Z,16.47
2023-03-16T15:04:24.797Z,17.77
2023-03-16T15:06:53.010Z,17.67
2023-03-16T15:09:35.420Z,19.37
2023-03-16T15:12:04.091Z,10.00
2023-03-16T15:14:49.561Z,14.83
2023-03-16T15:17:17.748Z,16.23
2023-03-16T15:19:45.901Z,11.60
2023-03-16T15:22:14.619Z,12.67
2023-03-16T15:24:44.187Z,15.50
2023-03-16T15:27:21.206Z,9.87
2023-03-16T15:29:49.397Z,9.80
2023-03-16T15:32:18.009Z,12.80
2023-03-16T15:34:47.037Z,9.40
2023-03-16T15:37:17.253Z,12.53
2023-03-16T15:39:47.583Z,8.93
2023-03-16T15:42:17.996Z,10.07
2023-03-16T15:44:47.198Z,13.70
2023-03-16T15:47:16.829Z,9.63
2023-03-16T15:49:48.389Z,10.93
2023-03-16T15:52:25.023Z,8.80
2023-03-16T15:54:57.369Z,11.37
2023-03-16T15:57:25.651Z,12.20
2023-03-16T15:59:53.829Z,21.63
2023-03-16T16:02:30.155Z,12.90
2023-03-16T16:04:59.379Z,14.67
2023-03-16T16:07:28.100Z,16.87
2023-03-16T16:09:57.630Z,15.60
2023-03-16T16:12:27.232Z,11.73
2023-03-16T16:14:56.738Z,15.27
2023-03-16T16:17:43.912Z,15.60
2023-03-16T16:20:21.417Z,12.07
2023-03-16T16:22:49.700Z,14.50
2023-03-16T16:25:20.542Z,12.07
2023-03-16T16:27:49.112Z,12.43
2023-03-16T16:30:26.208Z,8.57
2023-03-16T16:32:56.937Z,13.03
2023-03-16T16:35:28.124Z,26.63
2023-03-16T16:37:59.292Z,10.77
2023-03-16T16:40:45.814Z,16.90
2023-03-16T16:43:34.096Z,16.60
2023-03-16T16:46:04.796Z,11.97
2023-03-16T16:48:39.101Z,16.13
2023-03-16T16:51:19.524Z,15.53
2023-03-16T16:53:53.061Z,16.40
2023-03-16T16:56:28.133Z,23.67
2023-03-16T16:58:59.173Z,17.63
2023-03-16T17:01:29.711Z,28.83
2023-03-16T17:03:58.146Z,33.60
2023-03-16T17:06:27.925Z,33.23
2023-03-16T17:08:56.620Z,29.07
2023-03-16T17:11:29.149Z,35.60
2023-03-16T17:13:59.497Z,33.83
2023-03-16T17:16:28.720Z,27.73
2023-03-16T17:18:57.166Z,26.87
2023-03-16T17:21:27.239Z,40.63
2023-03-16T17:23:56.942Z,34.37
2023-03-16T17:26:28.909Z,55.97
2023-03-16T17:29:01.352Z,36.27
2023-03-16T17:31:35.039Z,39.90
2023-03-16T17:34:04.344Z,44.17
2023-03-16T17:36:32.509Z,45.67
2023-03-16T17:39:02.154Z,57.03
2023-03-16T17:41:33.131Z,70.97
2023-03-16T17:44:06.338Z,48.87
2023-03-16T17:46:34.691Z,42.03
2023-03-16T17:49:02.833Z,30.20
2023-03-16T17:51:32.357Z,33.83
2023-03-16T17:54:00.666Z,35.93
2023-03-16T17:56:33.451Z,21.67
2023-03-16T17:59:05.786Z,21.60
2023-03-16T18:01:35.369Z,18.23
2023-03-16T18:04:04.108Z,22.93
2023-03-16T18:06:32.918Z,21.50
2023-03-16T18:09:01.123Z,22.93
2023-03-16T18:11:36.088Z,23.90
2023-03-16T18:14:07.832Z,29.07
2023-03-16T18:16:36.284Z,29.00
2023-03-16T18:19:07.068Z,25.80
2023-03-16T18:21:36.438Z,31.47
2023-03-16T18:24:04.924Z,31.13
2023-03-16T18:26:34.736Z,39.40
2023-03-16T18:29:03.662Z,39.50
2023-03-16T18:31:31.908Z,36.20
2023-03-16T18:34:03.444Z,35.43
2023-03-16T18:36:34.077Z,34.43
2023-03-16T18:39:05.762Z,55.73
2023-03-16T18:41:37.475Z,31.77
2023-03-16T18:44:18.403Z,29.27
2023-03-16T18:46:48.032Z,32.70
2023-03-16T18:49:19.974Z,33.23
2023-03-16T18:51:51.341Z,22.80
2023-03-16T18:54:22.699Z,26.27
2023-03-16T18:56:53.872Z,32.43
2023-03-16T18:59:22.219Z,28.70
2023-03-16T19:01:50.552Z,31.43
2023-03-16T19:04:22.062Z,30.17
2023-03-16T19:06:52.102Z,32.80
2023-03-16T19:09:22.694Z,34.27
2023-03-16T19:11:53.394Z,33.63
2023-03-16T19:14:24.461Z,28.80
2023-03-16T19:16:53.893Z,35.30
2023-03-16T19:19:23.369Z,30.63
2023-03-16T19:21:53.910Z,24.73
2023-03-16T19:24:28.192Z,25.67
2023-03-16T19:26:58.547Z,23.47
2023-03-16T19:29:31.089Z,29.03
2023-03-16T19:32:00.332Z,27.27
2023-03-16T19:34:29.441Z,35.03
2023-03-16T19:36:57.690Z,26.17
2023-03-16T19:39:26.061Z,27.80
2023-03-16T19:41:59.201Z,25.23
2023-03-16T19:44:29.510Z,29.27
2023-03-16T19:46:59.178Z,24.80
2023-03-16T19:49:29.386Z,26.83
2023-03-16T19:51:57.869Z,23.47
2023-03-16T19:54:27.594Z,32.57
2023-03-16T19:57:00.912Z,29.20
2023-03-16T19:59:33.512Z,31.17
2023-03-16T20:02:02.305Z,25.67
2023-03-16T20:04:31.386Z,26.70
2023-03-16T20:06:59.579Z,29.17
2023-03-16T20:09:28.042Z,21.17
2023-03-16T20:11:56.241Z,19.93
2023-03-16T20:14:32.296Z,25.50
2023-03-16T20:17:01.036Z,24.47
2023-03-16T20:19:29.683Z,21.23
2023-03-16T20:21:57.945Z,23.40
2023-03-16T20:24:26.335Z,24.17
2023-03-16T20:26:54.634Z,28.57
2023-03-16T20:29:29.684Z,42.23
2023-03-16T20:31:58.527Z,62.63
2023-03-16T20:34:29.507Z,80.37
2023-03-16T20:37:01.193Z,64.20
2023-03-16T20:39:29.471Z,59.63
2023-03-16T20:41:58.287Z,64.80
2023-03-16T20:44:30.330Z,66.13
2023-03-16T20:46:58.597Z,68.33
2023-03-16T20:49:32.416Z,61.73
2023-03-16T20:52:00.667Z,71.67
2023-03-16T20:54:28.870Z,62.60
2023-03-16T20:56:57.057Z,65.87
2023-03-16T20:59:28.276Z,63.10
2023-03-16T21:01:56.536Z,68.57
2023-03-16T21:04:27.308Z,65.17
2023-03-16T21:06:56.839Z,70.13
2023-03-16T21:09:25.713Z,74.40
2023-03-16T21:11:53.957Z,66.20
2023-03-16T21:14:24.745Z,72.53
2023-03-16T21:16:55.050Z,66.13
2023-03-16T21:19:24.332Z,82.40
2023-03-16T21:21:53.118Z,73.53
2023-03-16T21:24:21.437Z,78.63
2023-03-16T21:26:49.689Z,69.80
2023-03-16T21:29:21.977Z,74.57
2023-03-16T21:31:50.648Z,80.67
2023-03-16T21:34:25.240Z,71.83
2023-03-16T21:36:53.994Z,69.90
2023-03-16T21:39:25.252Z,71.10
2023-03-16T21:41:54.204Z,77.17
2023-03-16T21:44:22.771Z,67.50
2023-03-16T21:46:51.335Z,66.23
2023-03-16T21:49:21.068Z,64.83
2023-03-16T21:51:50.882Z,54.33
2023-03-16T21:54:19.423Z,51.30
2023-03-16T21:56:47.929Z,48.27
2023-03-16T21:59:16.213Z,58.80
2023-03-16T22:02:00.425Z,52.57
2023-03-16T22:04:31.064Z,47.27
2023-03-16T22:06:59.219Z,42.07
2023-03-16T22:09:30.188Z,48.93
2023-03-16T22:11:58.653Z,30.63
2023-03-16T22:14:27.180Z,33.73
2023-03-16T22:16:55.865Z,26.57
2023-03-16T22:19:24.927Z,30.07
2023-03-16T22:21:56.607Z,34.37
2023-03-16T22:24:27.069Z,30.80
2023-03-16T22:26:55.797Z,33.17
2023-03-16T22:29:26.626Z,43.07
2023-03-16T22:31:57.613Z,37.70
2023-03-16T22:34:30.053Z,47.10
2023-03-16T22:37:00.528Z,65.90
2023-03-16T22:39:29.434Z,71.50
2023-03-16T22:41:57.642Z,79.77
2023-03-16T22:44:25.873Z,95.63
2023-03-16T22:46:54.054Z,129.17
2023-03-16T22:49:24.240Z,61.60
2023-03-16T22:51:53.876Z,49.30
2023-03-16T22:54:26.622Z,72.83
2023-03-16T22:56:55.396Z,79.17
2023-03-16T22:59:26.280Z,54.20
2023-03-16T23:01:54.471Z,59.17
2023-03-16T23:04:25.865Z,54.47
2023-03-16T23:06:55.080Z,53.60
2023-03-16T23:09:25.359Z,52.97
2023-03-16T23:11:54.951Z,50.27
2023-03-16T23:14:25.281Z,63.10
2023-03-16T23:16:54.087Z,45.30
2023-03-16T23:19:26.943Z,50.43
2023-03-16T23:21:57.894Z,65.13
2023-03-16T23:24:27.781Z,53.83
2023-03-16T23:26:56.824Z,55.63
2023-03-16T23:29:26.188Z,58.17
2023-03-16T23:31:54.724Z,52.27
2023-03-16T23:34:24.935Z,55.03
2023-03-16T23:36:53.439Z,55.53
2023-03-16T23:39:21.643Z,58.47
2023-03-16T23:41:51.724Z,56.13
2023-03-16T23:44:23.170Z,62.37
2023-03-16T23:46:52.352Z,63.77
2023-03-16T23:49:22.919Z,71.50
2023-03-16T23:51:52.795Z,85.63
2023-03-16T23:54:23.215Z,101.13
2023-03-16T23:56:53.211Z,141.50
2023-03-16T23:59:23.370Z,170.93
